createdAt,value
2019-01-31T00:00:36.349Z,87.32
2019-01-31T00:01:36.348Z,87.15
2019-01-31T00:02:36.333Z,87.25
2019-01-31T00:03:36.318Z,87.04
2019-01-31T00:04:36.307Z,87.40
2019-01-31T00:05:36.297Z,87.67
2019-01-31T00:06:36.296Z,87.67
2019-01-31T00:07:36.275Z,88.09
2019-01-31T00:08:45.614Z,87.92
2019-01-31T00:09:37.251Z,88.02
2019-01-31T00:10:36.243Z,87.92
2019-01-31T00:11:36.239Z,88.24
2019-01-31T00:12:36.221Z,88.45
2019-01-31T00:13:36.210Z,88.34
2019-01-31T00:14:36.202Z,87.50
2019-01-31T00:15:36.192Z,87.99
2019-01-31T00:16:36.187Z,87.77
2019-01-31T00:17:36.168Z,87.77
2019-01-31T00:18:36.156Z,87.67
2019-01-31T00:19:36.146Z,87.36
2019-01-31T00:20:36.136Z,86.98
2019-01-31T00:21:36.142Z,87.19
2019-01-31T00:22:36.114Z,88.24
2019-01-31T00:23:36.103Z,88.02
2019-01-31T00:24:36.093Z,88.20
2019-01-31T00:25:36.082Z,87.77
2019-01-31T00:26:36.076Z,88.02
2019-01-31T00:27:36.069Z,88.02
2019-01-31T00:28:36.050Z,88.02
2019-01-31T00:29:36.040Z,88.02
2019-01-31T00:30:36.033Z,88.13
2019-01-31T00:31:36.021Z,87.92
2019-01-31T00:32:36.017Z,88.13
2019-01-31T00:33:35.997Z,88.38
2019-01-31T00:34:35.986Z,88.24
2019-01-31T00:35:35.982Z,88.34
2019-01-31T00:36:35.964Z,88.34
2019-01-31T00:37:35.962Z,88.55
2019-01-31T00:38:35.943Z,88.66
2019-01-31T00:39:35.938Z,88.45
2019-01-31T00:40:35.923Z,88.76
2019-01-31T00:41:35.914Z,88.66
2019-01-31T00:42:35.910Z,89.07
2019-01-31T00:43:35.892Z,89.07
2019-01-31T00:44:35.884Z,89.18
2019-01-31T00:45:35.871Z,89.12
2019-01-31T00:46:35.859Z,89.01
2019-01-31T00:47:35.858Z,88.87
2019-01-31T00:48:35.839Z,89.12
2019-01-31T00:49:35.828Z,88.97
2019-01-31T00:50:35.817Z,88.66
2019-01-31T00:51:35.807Z,88.91
2019-01-31T00:52:35.805Z,88.97
2019-01-31T00:53:35.785Z,89.01
2019-01-31T00:54:35.775Z,89.01
2019-01-31T00:55:35.764Z,88.91
2019-01-31T00:56:35.754Z,88.87
2019-01-31T00:57:35.769Z,89.07
2019-01-31T00:58:35.732Z,88.87
2019-01-31T00:59:37.397Z,88.55
2019-01-31T01:00:35.711Z,88.87
2019-01-31T01:01:35.700Z,89.18
2019-01-31T01:02:35.691Z,88.55
2019-01-31T01:03:36.891Z,88.55
2019-01-31T01:04:35.667Z,88.45
2019-01-31T01:05:35.657Z,88.55
2019-01-31T01:06:35.647Z,88.45
2019-01-31T01:07:35.639Z,88.45
2019-01-31T01:08:35.632Z,88.45
2019-01-31T01:09:35.614Z,88.55
2019-01-31T01:10:35.627Z,89.07
2019-01-31T01:11:35.592Z,88.24
2019-01-31T01:12:35.584Z,88.24
2019-01-31T01:13:35.581Z,87.67
2019-01-31T01:14:35.560Z,88.09
2019-01-31T01:15:35.549Z,87.77
2019-01-31T01:16:35.538Z,87.82
2019-01-31T01:17:35.528Z,87.88
2019-01-31T01:18:35.526Z,87.92
2019-01-31T01:19:35.507Z,87.92
2019-01-31T01:20:35.495Z,88.76
2019-01-31T01:21:35.485Z,88.45
2019-01-31T01:22:35.475Z,89.07
2019-01-31T01:23:35.500Z,89.07
2019-01-31T01:24:35.455Z,88.76
2019-01-31T01:25:35.441Z,88.72
2019-01-31T01:26:35.432Z,89.25
2019-01-31T01:27:35.421Z,88.93
2019-01-31T01:28:35.410Z,88.76
2019-01-31T01:29:35.412Z,88.82
2019-01-31T01:30:35.388Z,88.82
2019-01-31T01:31:35.380Z,89.04
2019-01-31T01:32:35.367Z,89.04
2019-01-31T01:33:35.358Z,88.82
2019-01-31T01:34:35.355Z,88.62
2019-01-31T01:35:35.334Z,88.62
2019-01-31T01:36:35.330Z,88.79
2019-01-31T01:37:35.316Z,88.89
2019-01-31T01:38:35.302Z,88.72
2019-01-31T01:39:35.301Z,88.79
2019-01-31T01:40:35.281Z,87.74
2019-01-31T01:41:35.270Z,87.21
2019-01-31T01:42:35.267Z,87.95
2019-01-31T01:43:35.248Z,87.42
2019-01-31T01:44:35.246Z,87.11
2019-01-31T01:45:35.226Z,86.79
2019-01-31T01:46:35.216Z,87.07
2019-01-31T01:47:35.208Z,88.12
2019-01-31T01:48:35.195Z,87.95
2019-01-31T01:49:35.195Z,88.01
2019-01-31T01:50:35.172Z,87.11
2019-01-31T01:51:35.162Z,86.76
2019-01-31T01:52:35.152Z,86.79
2019-01-31T01:53:35.141Z,87.17
2019-01-31T01:54:35.140Z,86.86
2019-01-31T01:55:35.119Z,87.17
2019-01-31T01:56:35.108Z,85.91
2019-01-31T01:57:35.098Z,86.23
2019-01-31T01:58:35.086Z,85.95
2019-01-31T01:59:35.090Z,86.44
2019-01-31T02:00:35.069Z,85.95
2019-01-31T02:01:35.055Z,86.12
2019-01-31T02:02:35.044Z,86.76
2019-01-31T02:03:35.033Z,87.17
2019-01-31T02:04:35.056Z,86.65
2019-01-31T02:05:35.011Z,86.44
2019-01-31T02:06:35.006Z,86.37
2019-01-31T02:07:34.992Z,86.54
2019-01-31T02:08:34.984Z,85.91
2019-01-31T02:09:34.969Z,86.37
2019-01-31T02:10:34.968Z,87.07
2019-01-31T02:11:34.951Z,87.11
2019-01-31T02:12:34.937Z,86.90
2019-01-31T02:13:34.925Z,87.42
2019-01-31T02:14:34.914Z,87.17
2019-01-31T02:15:34.913Z,87.07
2019-01-31T02:16:34.896Z,87.21
2019-01-31T02:17:34.883Z,87.32
2019-01-31T02:18:34.871Z,87.00
2019-01-31T02:19:34.861Z,86.76
2019-01-31T02:20:34.859Z,87.28
2019-01-31T02:21:34.840Z,87.11
2019-01-31T02:22:34.829Z,87.32
2019-01-31T02:23:34.823Z,87.17
2019-01-31T02:24:34.808Z,86.96
2019-01-31T02:25:34.805Z,87.00
2019-01-31T02:26:34.788Z,87.49
2019-01-31T02:27:34.775Z,87.32
2019-01-31T02:28:34.765Z,86.65
2019-01-31T02:29:34.754Z,86.96
2019-01-31T02:30:34.753Z,87.11
2019-01-31T02:31:34.732Z,87.07
2019-01-31T02:32:34.721Z,87.42
2019-01-31T02:33:34.712Z,86.76
2019-01-31T02:34:34.700Z,86.96
2019-01-31T02:35:34.704Z,86.96
2019-01-31T02:36:34.690Z,87.42
2019-01-31T02:37:34.667Z,87.42
2019-01-31T02:38:34.658Z,87.42
2019-01-31T02:39:42.656Z,87.32
2019-01-31T02:40:35.663Z,87.11
2019-01-31T02:41:34.629Z,87.52
2019-01-31T02:42:34.614Z,87.52
2019-01-31T02:43:34.603Z,87.91
2019-01-31T02:44:34.592Z,87.52
2019-01-31T02:45:34.582Z,87.42
2019-01-31T02:46:34.580Z,86.76
2019-01-31T02:47:34.561Z,87.00
2019-01-31T02:48:34.549Z,87.00
2019-01-31T02:49:34.542Z,86.86
2019-01-31T02:50:34.528Z,86.90
2019-01-31T02:51:34.529Z,87.42
2019-01-31T02:52:34.507Z,87.21
2019-01-31T02:53:34.496Z,87.42
2019-01-31T02:54:34.486Z,87.11
2019-01-31T02:55:34.475Z,87.21
2019-01-31T02:56:34.473Z,86.90
2019-01-31T02:57:34.452Z,86.58
2019-01-31T02:58:34.443Z,86.65
2019-01-31T02:59:34.432Z,86.90
2019-01-31T03:00:34.421Z,86.79
2019-01-31T03:01:34.419Z,87.00
2019-01-31T03:02:34.403Z,86.90
2019-01-31T03:03:34.392Z,87.11
2019-01-31T03:04:34.379Z,87.00
2019-01-31T03:05:34.369Z,87.42
2019-01-31T03:06:34.391Z,87.11
2019-01-31T03:07:34.347Z,87.21
2019-01-31T03:08:34.336Z,87.11
2019-01-31T03:09:34.323Z,87.00
2019-01-31T03:10:34.320Z,87.11
2019-01-31T03:11:34.304Z,86.90
2019-01-31T03:12:34.302Z,86.27
2019-01-31T03:13:34.294Z,87.21
2019-01-31T03:14:34.270Z,87.11
2019-01-31T03:15:34.264Z,86.37
2019-01-31T03:16:34.252Z,86.58
2019-01-31T03:17:34.246Z,86.79
2019-01-31T03:18:34.227Z,86.79
2019-01-31T03:19:34.217Z,86.69
2019-01-31T03:20:34.208Z,87.11
2019-01-31T03:21:34.305Z,86.79
2019-01-31T03:22:34.193Z,87.21
2019-01-31T03:23:34.172Z,87.21
2019-01-31T03:24:34.162Z,87.21
2019-01-31T03:25:34.165Z,87.21
2019-01-31T03:26:34.142Z,86.90
2019-01-31T03:27:34.141Z,87.15
2019-01-31T03:28:34.123Z,86.90
2019-01-31T03:29:34.109Z,87.11
2019-01-31T03:30:34.114Z,86.90
2019-01-31T03:31:34.088Z,86.27
2019-01-31T03:32:34.092Z,87.21
2019-01-31T03:33:34.064Z,87.00
2019-01-31T03:34:34.055Z,87.00
2019-01-31T03:35:34.044Z,87.00
2019-01-31T03:36:34.032Z,87.21
2019-01-31T03:37:34.035Z,87.21
2019-01-31T03:38:34.012Z,86.90
2019-01-31T03:39:34.004Z,87.32
2019-01-31T03:40:33.990Z,86.79
2019-01-31T03:41:33.979Z,87.52
2019-01-31T03:42:33.976Z,87.21
2019-01-31T03:43:33.957Z,87.42
2019-01-31T03:44:33.947Z,87.36
2019-01-31T03:45:33.940Z,87.42
2019-01-31T03:46:33.925Z,87.36
2019-01-31T03:47:33.927Z,87.57
2019-01-31T03:48:33.903Z,87.52
2019-01-31T03:49:33.894Z,87.57
2019-01-31T03:50:33.959Z,87.11
2019-01-31T03:51:33.872Z,87.11
2019-01-31T03:52:33.899Z,87.11
2019-01-31T03:53:33.850Z,86.90
2019-01-31T03:54:33.839Z,87.21
2019-01-31T03:55:33.832Z,86.90
2019-01-31T03:56:33.819Z,87.42
2019-01-31T03:57:33.807Z,87.42
2019-01-31T03:58:33.806Z,87.32
2019-01-31T03:59:33.786Z,86.79
2019-01-31T04:00:33.775Z,86.90
2019-01-31T04:01:33.765Z,86.69
2019-01-31T04:02:33.752Z,86.86
2019-01-31T04:03:33.758Z,86.27
2019-01-31T04:04:33.732Z,86.79
2019-01-31T04:05:33.720Z,86.54
2019-01-31T04:06:33.709Z,87.17
2019-01-31T04:07:33.701Z,86.79
2019-01-31T04:08:33.703Z,86.44
2019-01-31T04:09:33.677Z,86.65
2019-01-31T04:10:33.666Z,86.02
2019-01-31T04:11:33.655Z,85.91
2019-01-31T04:12:33.644Z,86.02
2019-01-31T04:13:33.645Z,86.86
2019-01-31T04:14:33.627Z,86.54
2019-01-31T04:15:33.614Z,86.86
2019-01-31T04:16:33.606Z,86.76
2019-01-31T04:17:33.590Z,86.86
2019-01-31T04:18:33.590Z,86.02
2019-01-31T04:19:33.572Z,86.76
2019-01-31T04:20:33.560Z,86.76
2019-01-31T04:21:33.548Z,86.44
2019-01-31T04:22:33.537Z,86.96
2019-01-31T04:23:33.535Z,87.07
2019-01-31T04:24:33.520Z,86.40
2019-01-31T04:25:33.509Z,86.02
2019-01-31T04:26:33.493Z,86.08
2019-01-31T04:27:33.484Z,85.91
2019-01-31T04:28:33.480Z,86.12
2019-01-31T04:29:33.462Z,86.44
2019-01-31T04:30:33.493Z,86.61
2019-01-31T04:31:33.439Z,86.54
2019-01-31T04:32:33.432Z,86.86
2019-01-31T04:33:33.437Z,86.54
2019-01-31T04:34:33.409Z,87.07
2019-01-31T04:35:33.396Z,87.03
2019-01-31T04:36:33.385Z,86.40
2019-01-31T04:37:33.376Z,86.92
2019-01-31T04:38:33.374Z,86.86
2019-01-31T04:39:33.353Z,86.08
2019-01-31T04:40:33.342Z,87.03
2019-01-31T04:41:33.332Z,86.08
2019-01-31T04:42:33.330Z,86.19
2019-01-31T04:43:33.319Z,87.13
2019-01-31T04:44:33.303Z,87.13
2019-01-31T04:45:33.294Z,86.61
2019-01-31T04:46:33.278Z,85.56
2019-01-31T04:47:33.269Z,85.56
2019-01-31T04:48:33.265Z,85.56
2019-01-31T04:49:33.245Z,85.88
2019-01-31T04:50:33.234Z,85.56
2019-01-31T04:51:33.224Z,84.83
2019-01-31T04:52:33.214Z,85.88
2019-01-31T04:53:33.213Z,85.66
2019-01-31T04:54:33.192Z,86.19
2019-01-31T04:55:33.181Z,85.77
2019-01-31T04:56:33.169Z,84.93
2019-01-31T04:57:33.159Z,85.98
2019-01-31T04:58:33.158Z,85.56
2019-01-31T04:59:33.137Z,85.03
2019-01-31T05:00:33.127Z,85.03
2019-01-31T05:01:33.117Z,85.66
2019-01-31T05:02:33.107Z,85.73
2019-01-31T05:03:33.103Z,85.46
2019-01-31T05:04:33.087Z,84.93
2019-01-31T05:05:33.072Z,85.14
2019-01-31T05:06:33.064Z,85.77
2019-01-31T05:07:33.051Z,85.77
2019-01-31T05:08:33.050Z,85.66
2019-01-31T05:09:33.030Z,85.14
2019-01-31T05:10:42.612Z,85.88
2019-01-31T05:11:34.008Z,85.66
2019-01-31T05:12:33.001Z,85.46
2019-01-31T05:13:32.996Z,85.56
2019-01-31T05:14:32.976Z,85.56
2019-01-31T05:15:32.965Z,85.88
2019-01-31T05:16:32.957Z,85.56
2019-01-31T05:17:32.945Z,85.66
2019-01-31T05:18:32.939Z,86.08
2019-01-31T05:19:32.931Z,85.56
2019-01-31T05:20:32.914Z,85.56
2019-01-31T05:21:32.900Z,85.88
2019-01-31T05:22:32.892Z,86.08
2019-01-31T05:23:32.883Z,86.40
2019-01-31T05:24:32.878Z,85.98
2019-01-31T05:25:32.858Z,86.40
2019-01-31T05:26:32.847Z,86.71
2019-01-31T05:27:32.837Z,86.40
2019-01-31T05:28:32.829Z,85.98
2019-01-31T05:29:32.822Z,85.66
2019-01-31T05:30:32.806Z,85.98
2019-01-31T05:31:32.792Z,86.40
2019-01-31T05:32:32.782Z,86.61
2019-01-31T05:33:32.774Z,87.03
2019-01-31T05:34:32.770Z,86.82
2019-01-31T05:35:32.750Z,86.15
2019-01-31T05:36:32.740Z,85.63
2019-01-31T05:37:32.733Z,85.94
2019-01-31T05:38:32.721Z,86.68
2019-01-31T05:39:32.722Z,86.61
2019-01-31T05:40:32.697Z,87.09
2019-01-31T05:41:32.688Z,86.78
2019-01-31T05:42:32.676Z,86.29
2019-01-31T05:43:32.665Z,86.25
2019-01-31T05:44:32.663Z,86.25
2019-01-31T05:45:32.645Z,86.25
2019-01-31T05:46:32.633Z,86.15
2019-01-31T05:47:32.626Z,86.25
2019-01-31T05:48:32.690Z,85.77
2019-01-31T05:49:32.611Z,85.94
2019-01-31T05:50:32.591Z,85.52
2019-01-31T05:51:32.580Z,85.83
2019-01-31T05:52:32.571Z,86.25
2019-01-31T05:53:32.558Z,85.42
2019-01-31T05:54:32.557Z,85.83
2019-01-31T05:55:32.538Z,85.14
2019-01-31T05:56:32.526Z,85.10
2019-01-31T05:57:32.519Z,85.52
2019-01-31T05:58:32.505Z,85.83
2019-01-31T05:59:32.534Z,86.46
2019-01-31T06:00:32.484Z,86.46
2019-01-31T06:01:32.475Z,86.36
2019-01-31T06:02:32.463Z,86.05
2019-01-31T06:03:32.453Z,85.63
2019-01-31T06:04:32.457Z,84.16
2019-01-31T06:05:32.430Z,84.79
2019-01-31T06:06:32.418Z,85.63
2019-01-31T06:07:32.408Z,85.73
2019-01-31T06:08:32.397Z,85.94
2019-01-31T06:09:32.400Z,85.63
2019-01-31T06:10:33.567Z,86.19
2019-01-31T06:11:32.371Z,85.52
2019-01-31T06:12:32.361Z,85.66
2019-01-31T06:13:32.343Z,86.19
2019-01-31T06:14:32.344Z,85.63
2019-01-31T06:15:32.322Z,86.19
2019-01-31T06:16:32.313Z,86.19
2019-01-31T06:17:32.300Z,85.98
2019-01-31T06:18:32.290Z,86.19
2019-01-31T06:19:32.288Z,86.08
2019-01-31T06:20:32.268Z,85.88
2019-01-31T06:21:32.258Z,85.56
2019-01-31T06:22:32.251Z,85.98
2019-01-31T06:23:32.237Z,86.08
2019-01-31T06:24:32.234Z,86.29
2019-01-31T06:25:32.215Z,86.19
2019-01-31T06:26:32.204Z,86.08
2019-01-31T06:27:32.196Z,86.02
2019-01-31T06:28:32.184Z,86.61
2019-01-31T06:29:32.181Z,86.08
2019-01-31T06:30:32.163Z,86.12
2019-01-31T06:31:32.152Z,86.40
2019-01-31T06:32:32.146Z,85.91
2019-01-31T06:33:32.131Z,86.33
2019-01-31T06:34:32.128Z,86.02
2019-01-31T06:35:32.118Z,85.60
2019-01-31T06:36:32.097Z,85.88
2019-01-31T06:37:32.087Z,85.66
2019-01-31T06:38:32.076Z,85.56
2019-01-31T06:39:32.161Z,86.51
2019-01-31T06:40:32.058Z,86.33
2019-01-31T06:41:32.044Z,86.12
2019-01-31T06:42:32.033Z,86.23
2019-01-31T06:43:32.022Z,86.44
2019-01-31T06:44:32.020Z,87.03
2019-01-31T06:45:32.002Z,87.17
2019-01-31T06:46:31.992Z,86.02
2019-01-31T06:47:31.980Z,86.02
2019-01-31T06:48:34.033Z,85.88
2019-01-31T06:49:31.974Z,85.98
2019-01-31T06:50:31.948Z,86.29
2019-01-31T06:51:31.936Z,85.98
2019-01-31T06:52:31.925Z,86.40
2019-01-31T06:53:31.915Z,85.98
2019-01-31T06:54:31.912Z,85.88
2019-01-31T06:55:31.893Z,85.77
2019-01-31T06:56:31.883Z,85.66
2019-01-31T06:57:31.873Z,86.29
2019-01-31T06:58:31.863Z,85.98
2019-01-31T06:59:31.859Z,85.98
2019-01-31T07:00:31.839Z,86.08
2019-01-31T07:01:31.829Z,85.98
2019-01-31T07:02:31.826Z,86.19
2019-01-31T07:03:31.807Z,85.98
2019-01-31T07:04:31.804Z,85.77
2019-01-31T07:05:31.786Z,86.82
2019-01-31T07:06:31.775Z,87.03
2019-01-31T07:07:31.768Z,87.03
2019-01-31T07:08:31.755Z,87.03
2019-01-31T07:09:31.752Z,87.03
2019-01-31T07:10:31.732Z,86.82
2019-01-31T07:11:31.721Z,86.92
2019-01-31T07:12:31.711Z,86.82
2019-01-31T07:13:33.789Z,86.51
2019-01-31T07:14:31.699Z,86.92
2019-01-31T07:15:31.679Z,86.82
2019-01-31T07:16:31.668Z,86.82
2019-01-31T07:17:31.657Z,87.34
2019-01-31T07:18:31.645Z,86.82
2019-01-31T07:19:31.645Z,87.13
2019-01-31T07:20:31.629Z,87.24
2019-01-31T07:21:31.616Z,86.92
2019-01-31T07:22:31.602Z,87.34
2019-01-31T07:23:31.591Z,87.13
2019-01-31T07:24:31.590Z,87.24
2019-01-31T07:25:31.570Z,87.13
2019-01-31T07:26:31.703Z,87.24
2019-01-31T07:27:31.549Z,86.88
2019-01-31T07:28:31.538Z,86.78
2019-01-31T07:29:31.554Z,86.61
2019-01-31T07:30:31.520Z,86.92
2019-01-31T07:31:31.511Z,87.30
2019-01-31T07:32:31.501Z,87.24
2019-01-31T07:33:31.484Z,87.20
2019-01-31T07:34:31.473Z,87.30
2019-01-31T07:35:31.472Z,87.30
2019-01-31T07:36:31.456Z,87.03
2019-01-31T07:37:31.441Z,86.57
2019-01-31T07:38:31.431Z,86.68
2019-01-31T07:39:31.419Z,86.57
2019-01-31T07:40:31.418Z,86.57
2019-01-31T07:41:40.897Z,86.57
2019-01-31T07:42:32.389Z,86.36
2019-01-31T07:43:31.376Z,86.57
2019-01-31T07:44:31.366Z,86.57
2019-01-31T07:45:31.364Z,86.46
2019-01-31T07:46:31.344Z,86.46
2019-01-31T07:47:31.338Z,86.46
2019-01-31T07:48:31.327Z,86.57
2019-01-31T07:49:31.313Z,85.94
2019-01-31T07:50:31.311Z,86.25
2019-01-31T07:51:31.292Z,85.94
2019-01-31T07:52:31.282Z,85.83
2019-01-31T07:53:31.270Z,86.36
2019-01-31T07:54:31.260Z,86.05
2019-01-31T07:55:31.258Z,85.31
2019-01-31T07:56:31.239Z,85.73
2019-01-31T07:57:31.230Z,85.73
2019-01-31T07:58:31.218Z,85.94
2019-01-31T07:59:31.207Z,86.00
2019-01-31T08:00:31.205Z,85.80
2019-01-31T08:01:31.189Z,86.74
2019-01-31T08:02:31.184Z,86.95
2019-01-31T08:03:31.164Z,86.95
2019-01-31T08:04:31.154Z,86.95
2019-01-31T08:05:31.152Z,86.53
2019-01-31T08:06:31.134Z,86.95
2019-01-31T08:07:31.126Z,86.00
2019-01-31T08:08:31.113Z,85.48
2019-01-31T08:09:31.101Z,86.11
2019-01-31T08:10:31.101Z,85.65
2019-01-31T08:11:31.079Z,85.80
2019-01-31T08:12:31.072Z,86.00
2019-01-31T08:13:31.060Z,86.53
2019-01-31T08:14:31.048Z,86.32
2019-01-31T08:15:31.049Z,86.91
2019-01-31T08:16:31.028Z,86.53
2019-01-31T08:17:31.019Z,86.49
2019-01-31T08:18:31.007Z,85.86
2019-01-31T08:19:30.994Z,85.55
2019-01-31T08:20:30.991Z,85.24
2019-01-31T08:21:30.973Z,85.86
2019-01-31T08:22:30.963Z,85.65
2019-01-31T08:23:30.954Z,85.65
2019-01-31T08:24:30.944Z,86.38
2019-01-31T08:25:30.942Z,85.30
2019-01-31T08:26:30.923Z,85.65
2019-01-31T08:27:30.913Z,84.78
2019-01-31T08:28:30.899Z,85.86
2019-01-31T08:29:30.888Z,85.65
2019-01-31T08:30:30.889Z,84.56
2019-01-31T08:31:30.868Z,84.19
2019-01-31T08:32:30.856Z,83.87
2019-01-31T08:33:30.847Z,84.81
2019-01-31T08:34:30.839Z,84.81
2019-01-31T08:35:30.835Z,84.71
2019-01-31T08:36:30.816Z,85.86
2019-01-31T08:37:30.814Z,85.55
2019-01-31T08:38:30.793Z,85.34
2019-01-31T08:39:30.782Z,85.97
2019-01-31T08:40:30.781Z,85.02
2019-01-31T08:41:30.761Z,84.50
2019-01-31T08:42:30.753Z,84.08
2019-01-31T08:43:30.741Z,85.02
2019-01-31T08:44:30.736Z,85.44
2019-01-31T08:45:30.727Z,84.61
2019-01-31T08:46:30.711Z,84.81
2019-01-31T08:47:30.702Z,84.19
2019-01-31T08:48:30.691Z,84.50
2019-01-31T08:49:30.677Z,84.50
2019-01-31T08:50:30.675Z,85.02
2019-01-31T08:51:30.656Z,84.92
2019-01-31T08:52:30.645Z,84.92
2019-01-31T08:53:30.637Z,85.02
2019-01-31T08:54:30.629Z,85.34
2019-01-31T08:55:30.621Z,84.50
2019-01-31T08:56:30.603Z,84.71
2019-01-31T08:57:30.592Z,84.81
2019-01-31T08:58:30.583Z,84.81
2019-01-31T08:59:30.573Z,84.39
2019-01-31T09:00:30.568Z,84.81
2019-01-31T09:01:30.549Z,84.78
2019-01-31T09:02:30.539Z,84.46
2019-01-31T09:03:30.528Z,84.00
2019-01-31T09:04:30.517Z,84.15
2019-01-31T09:05:30.515Z,84.11
2019-01-31T09:06:30.496Z,84.00
2019-01-31T09:07:30.486Z,83.38
2019-01-31T09:08:30.475Z,83.38
2019-01-31T09:09:30.465Z,83.17
2019-01-31T09:10:30.469Z,83.38
2019-01-31T09:11:30.444Z,83.48
2019-01-31T09:12:30.434Z,84.00
2019-01-31T09:13:30.422Z,85.58
2019-01-31T09:14:30.413Z,84.70
2019-01-31T09:15:30.440Z,84.59
2019-01-31T09:16:30.392Z,84.07
2019-01-31T09:17:30.380Z,81.77
2019-01-31T09:18:30.371Z,83.44
2019-01-31T09:19:30.359Z,83.23
2019-01-31T09:20:30.349Z,82.78
2019-01-31T09:21:30.350Z,83.62
2019-01-31T09:22:30.377Z,83.93
2019-01-31T09:23:30.319Z,83.09
2019-01-31T09:24:30.307Z,81.95
2019-01-31T09:25:30.296Z,83.09
2019-01-31T09:26:30.294Z,83.40
2019-01-31T09:27:30.275Z,82.26
2019-01-31T09:28:30.265Z,81.52
2019-01-31T09:29:30.255Z,82.01
2019-01-31T09:30:30.243Z,81.42
2019-01-31T09:31:30.241Z,80.96
2019-01-31T09:32:30.223Z,80.86
2019-01-31T09:33:30.211Z,82.12
2019-01-31T09:34:30.201Z,81.90
2019-01-31T09:35:30.204Z,80.44
2019-01-31T09:36:30.188Z,81.38
2019-01-31T09:37:30.174Z,81.70
2019-01-31T09:38:30.158Z,81.59
2019-01-31T09:39:30.149Z,81.80
2019-01-31T09:40:30.141Z,81.80
2019-01-31T09:41:30.134Z,81.80
2019-01-31T09:42:30.116Z,81.49
2019-01-31T09:43:30.106Z,81.45
2019-01-31T09:44:30.157Z,82.18
2019-01-31T09:45:30.087Z,81.49
2019-01-31T09:46:30.102Z,81.35
2019-01-31T09:47:31.749Z,81.66
2019-01-31T09:48:30.055Z,81.45
2019-01-31T09:49:30.044Z,80.09
2019-01-31T09:50:30.031Z,80.30
2019-01-31T09:51:30.074Z,80.51
2019-01-31T09:52:30.029Z,80.41
2019-01-31T09:53:30.129Z,79.78
2019-01-31T09:54:29.990Z,80.09
2019-01-31T09:55:29.981Z,79.68
2019-01-31T09:56:29.968Z,79.68
2019-01-31T09:57:29.968Z,79.88
2019-01-31T09:58:29.950Z,80.41
2019-01-31T09:59:29.936Z,81.35
2019-01-31T10:00:29.925Z,81.66
2019-01-31T10:01:29.915Z,80.47
2019-01-31T10:02:29.914Z,80.37
2019-01-31T10:03:29.894Z,80.05
2019-01-31T10:04:29.883Z,81.21
2019-01-31T10:05:29.873Z,80.05
2019-01-31T10:06:29.861Z,79.85
2019-01-31T10:07:29.859Z,79.91
2019-01-31T10:08:29.840Z,79.71
2019-01-31T10:09:29.829Z,79.91
2019-01-31T10:10:29.821Z,79.81
2019-01-31T10:11:29.808Z,78.66
2019-01-31T10:12:37.922Z,78.56
2019-01-31T10:13:30.906Z,78.14
2019-01-31T10:14:29.823Z,78.63
2019-01-31T10:15:29.780Z,79.67
2019-01-31T10:16:29.793Z,79.67
2019-01-31T10:17:29.796Z,78.94
2019-01-31T10:18:29.758Z,78.21
2019-01-31T10:19:29.784Z,78.21
2019-01-31T10:20:29.745Z,78.00
2019-01-31T10:21:29.705Z,78.17
2019-01-31T10:22:29.711Z,77.45
2019-01-31T10:23:29.683Z,77.55
2019-01-31T10:24:29.697Z,77.66
2019-01-31T10:25:29.720Z,77.72
2019-01-31T10:26:29.651Z,76.89
2019-01-31T10:27:29.668Z,77.23
2019-01-31T10:28:29.625Z,76.51
2019-01-31T10:29:29.621Z,77.34
2019-01-31T10:30:29.604Z,76.72
2019-01-31T10:31:29.713Z,76.92
2019-01-31T10:32:29.582Z,76.82
2019-01-31T10:33:29.582Z,77.76
2019-01-31T10:34:29.562Z,76.68
2019-01-31T10:35:29.550Z,75.95
2019-01-31T10:36:29.539Z,76.89
2019-01-31T10:37:29.528Z,76.78
2019-01-31T10:38:29.528Z,75.74
2019-01-31T10:39:29.507Z,75.71
2019-01-31T10:40:29.496Z,75.29
2019-01-31T10:41:29.489Z,75.88
2019-01-31T10:42:29.475Z,76.40
2019-01-31T10:43:29.472Z,74.63
2019-01-31T10:44:29.454Z,74.01
2019-01-31T10:45:29.445Z,74.84
2019-01-31T10:46:29.431Z,74.74
2019-01-31T10:47:29.420Z,74.53
2019-01-31T10:48:29.420Z,74.84
2019-01-31T10:49:29.399Z,75.43
2019-01-31T10:50:29.392Z,75.74
2019-01-31T10:51:29.388Z,75.92
2019-01-31T10:52:29.368Z,74.57
2019-01-31T10:53:29.367Z,72.90
2019-01-31T10:54:29.347Z,72.69
2019-01-31T10:55:29.338Z,74.53
2019-01-31T10:56:29.328Z,73.39
2019-01-31T10:57:29.317Z,73.11
2019-01-31T10:58:29.359Z,73.60
2019-01-31T10:59:29.292Z,72.66
2019-01-31T11:00:29.282Z,72.55
2019-01-31T11:01:29.272Z,72.14
2019-01-31T11:02:29.263Z,72.66
2019-01-31T11:03:29.250Z,71.41
2019-01-31T11:04:29.249Z,71.31
2019-01-31T11:05:29.230Z,72.28
2019-01-31T11:06:29.219Z,72.07
2019-01-31T11:07:29.209Z,73.00
2019-01-31T11:08:29.197Z,74.67
2019-01-31T11:09:29.194Z,72.38
2019-01-31T11:10:29.176Z,71.34
2019-01-31T11:11:29.166Z,72.49
2019-01-31T11:12:29.155Z,72.69
2019-01-31T11:13:29.144Z,72.07
2019-01-31T11:14:29.147Z,73.21
2019-01-31T11:15:29.125Z,72.90
2019-01-31T11:16:29.115Z,72.69
2019-01-31T11:17:29.106Z,72.59
2019-01-31T11:18:29.091Z,72.69
2019-01-31T11:19:29.097Z,72.17
2019-01-31T11:20:29.088Z,73.32
2019-01-31T11:21:29.062Z,74.11
2019-01-31T11:22:29.049Z,73.49
2019-01-31T11:23:29.038Z,72.66
2019-01-31T11:24:29.036Z,73.35
2019-01-31T11:25:29.018Z,72.31
2019-01-31T11:26:29.010Z,72.31
2019-01-31T11:27:28.996Z,72.63
2019-01-31T11:28:28.984Z,71.90
2019-01-31T11:29:28.988Z,72.38
2019-01-31T11:30:28.964Z,71.59
2019-01-31T11:31:28.960Z,71.07
2019-01-31T11:32:28.942Z,71.80
2019-01-31T11:33:28.932Z,72.31
2019-01-31T11:34:33.149Z,71.48
2019-01-31T11:35:28.910Z,70.93
2019-01-31T11:36:28.903Z,71.55
2019-01-31T11:37:28.887Z,72.38
2019-01-31T11:38:28.877Z,71.76
2019-01-31T11:39:28.909Z,71.45
2019-01-31T11:40:28.856Z,71.45
2019-01-31T11:41:28.850Z,71.34
2019-01-31T11:42:28.834Z,72.38
2019-01-31T11:43:28.823Z,70.17
2019-01-31T11:44:28.812Z,70.72
2019-01-31T11:45:28.809Z,71.03
2019-01-31T11:46:28.791Z,71.24
2019-01-31T11:47:28.780Z,70.51
2019-01-31T11:48:28.769Z,71.45
2019-01-31T11:49:28.762Z,70.62
2019-01-31T11:50:28.756Z,70.10
2019-01-31T11:51:28.736Z,70.97
2019-01-31T11:52:28.726Z,70.83
2019-01-31T11:53:28.715Z,71.14
2019-01-31T11:54:28.705Z,71.03
2019-01-31T11:55:28.704Z,71.45
2019-01-31T11:56:28.682Z,70.93
2019-01-31T11:57:28.672Z,70.20
2019-01-31T11:58:28.661Z,70.41
2019-01-31T11:59:28.653Z,70.93
2019-01-31T12:00:28.649Z,70.79
2019-01-31T12:01:28.628Z,70.79
2019-01-31T12:02:28.617Z,70.90
2019-01-31T12:03:28.608Z,69.42
2019-01-31T12:04:28.596Z,70.25
2019-01-31T12:05:28.594Z,68.69
2019-01-31T12:06:28.577Z,70.56
2019-01-31T12:07:28.563Z,70.97
2019-01-31T12:08:28.556Z,69.31
2019-01-31T12:09:28.541Z,68.76
2019-01-31T12:10:28.543Z,68.65
2019-01-31T12:11:28.519Z,69.27
2019-01-31T12:12:28.509Z,70.39
2019-01-31T12:13:28.500Z,68.93
2019-01-31T12:14:28.487Z,68.93
2019-01-31T12:15:28.529Z,68.65
2019-01-31T12:16:28.465Z,68.86
2019-01-31T12:17:28.454Z,68.62
2019-01-31T12:18:28.445Z,69.69
2019-01-31T12:19:28.432Z,70.83
2019-01-31T12:20:28.421Z,69.48
2019-01-31T12:21:28.420Z,67.30
2019-01-31T12:22:28.400Z,67.51
2019-01-31T12:23:28.391Z,67.10
2019-01-31T12:24:28.378Z,67.41
2019-01-31T12:25:28.368Z,68.86
2019-01-31T12:26:28.370Z,70.52
2019-01-31T12:27:28.346Z,67.82
2019-01-31T12:28:28.338Z,67.72
2019-01-31T12:29:28.323Z,66.82
2019-01-31T12:30:28.314Z,67.61
2019-01-31T12:31:28.435Z,68.90
2019-01-31T12:32:28.292Z,68.76
2019-01-31T12:33:30.872Z,69.07
2019-01-31T12:34:28.270Z,69.07
2019-01-31T12:35:28.260Z,70.66
2019-01-31T12:36:28.256Z,68.76
2019-01-31T12:37:28.262Z,69.17
2019-01-31T12:38:36.514Z,67.82
2019-01-31T12:39:29.217Z,67.93
2019-01-31T12:40:28.204Z,68.76
2019-01-31T12:41:28.202Z,68.24
2019-01-31T12:42:28.182Z,68.65
2019-01-31T12:43:35.302Z,68.73
2019-01-31T12:44:29.161Z,69.24
2019-01-31T12:45:28.150Z,66.99
2019-01-31T12:46:28.150Z,67.20
2019-01-31T12:47:28.132Z,67.10
2019-01-31T12:48:28.116Z,67.90
2019-01-31T12:49:28.109Z,67.82
2019-01-31T12:50:28.101Z,66.89
2019-01-31T12:51:28.112Z,68.34
2019-01-31T12:52:28.074Z,67.93